Аэропорт: Толмачёво. Новосибирск

ICAO: UNNT

METAR:
2019-12-12 11:00:00
UNNT 121100Z 16005MPS CAVOK M08/M09 Q1016 R25/290150 R16/820155 NOSIG RMK QFE752/1003
METAR:
2019-12-12 08:00:00
TAF UNNT 120800Z 1209/1309 16006G11MPS 9999 OVC009 TEMPO 1209/1214 3100 -SN BKN005 FM121400 18003G08MPS 9999 -SHSN BKN011CB TEMPO 1214/1309 3100 -SHSN BKN005 BKN016CB